This is the latest recevied weather packets stored in our database for station/object IONIA-WX. If no packets are shown the sender has not sent any weather packets the latest 10 day(s).
| Time | Temp. | Humidity | Pressure | Rain* | Wind** | Luminosity | Snow |
|---|---|---|---|---|---|---|---|
| 1787992218 | 15° C | 78% | 989.6 hPa | 0 mm | - | - | - |
| 1787991316 | 15° C | 78% | 989.6 hPa | 0 mm | - | - | - |
| 1787990428 | 15° C | 78% | 989.6 hPa | 0 mm | - | - | - |
| 1787989516 | 15° C | 80% | 989.8 hPa | 0 mm | - | - | - |
| 1787988618 | 15° C | 80% | 989.8 hPa | 0 mm | - | - | - |
| 1787987715 | 15° C | 80% | 989.8 hPa | 0 mm | - | - | - |
| 1787986817 | 15° C | 80% | 989.8 hPa | 0 mm | - | - | - |
| 1787985016 | 15° C | 78% | 989.2 hPa | 0 mm | - | - | - |
| 1787984116 | 15.56° C | 78% | 989.2 hPa | 0 mm | - | - | - |
| 1787983219 | 15.56° C | 78% | 989.2 hPa | 0 mm | - | - | - |
| 1787982318 | 15.56° C | 85% | 989.5 hPa | 0 mm | - | - | - |
| 1787981417 | 15.56° C | 83% | 989.4 hPa | 0 mm | - | - | - |
| 1787980521 | 15.56° C | 83% | 989.4 hPa | 0 mm | - | - | - |
| 1787979626 | 15.56° C | 83% | 989.4 hPa | 0 mm | - | - | - |
| 1787978718 | 15.56° C | 81% | 989.2 hPa | 0 mm | - | - | - |
| 1787977817 | 15.56° C | 83% | 989.3 hPa | 0 mm | - | - | - |
| 1787976919 | 16.11° C | 83% | 989.3 hPa | 0 mm | - | - | - |
| 1787976017 | 16.11° C | 83% | 989.3 hPa | 0 mm | - | - | - |
| 1787975117 | 16.67° C | 79% | 989.6 hPa | 0 mm | - | - | - |
| 1787974219 | 16.67° C | 79% | 989.9 hPa | 0 mm | - | - | - |
| 1787973319 | 17.22° C | 79% | 989.9 hPa | 0 mm | - | - | - |
| 1787972418 | 17.78° C | 79% | 989.9 hPa | 0 mm | - | - | - |
| 1787971519 | 17.78° C | 78% | 990.5 hPa | 0 mm | - | - | - |
| 1787970616 | 18.89° C | 71% | 990.4 hPa | 0 mm | - | - | - |
| 1787969717 | 19.44° C | 71% | 990.4 hPa | 0 mm | - | - | - |
* Rain latest hour (hover to see other rain measurements)
** Current wind speed in m/s (hover to see current wind gust speed)